sensor_id;sensor_type;location;lat;lon;timestamp;temperature;humidity
39983;DHT22;25670;44.782;10.356;2023-08-20T00:00:38;24.70;99.90
39983;DHT22;25670;44.782;10.356;2023-08-20T00:03:11;24.60;99.90
39983;DHT22;25670;44.782;10.356;2023-08-20T00:05:38;24.70;99.90
39983;DHT22;25670;44.782;10.356;2023-08-20T00:10:32;24.70;99.90
39983;DHT22;25670;44.782;10.356;2023-08-20T00:15:25;24.00;99.90
39983;DHT22;25670;44.782;10.356;2023-08-20T00:17:55;24.80;99.90
39983;DHT22;25670;44.782;10.356;2023-08-20T00:20:22;24.10;99.90
39983;DHT22;25670;44.782;10.356;2023-08-20T00:22:49;24.70;99.90
39983;DHT22;25670;44.782;10.356;2023-08-20T00:25:16;24.80;99.90
39983;DHT22;25670;44.782;10.356;2023-08-20T00:27:43;24.70;99.90
39983;DHT22;25670;44.782;10.356;2023-08-20T00:30:11;24.80;99.90
39983;DHT22;25670;44.782;10.356;2023-08-20T00:32:37;24.80;99.90
39983;DHT22;25670;44.782;10.356;2023-08-20T00:35:04;25.00;99.90
39983;DHT22;25670;44.782;10.356;2023-08-20T00:37:31;24.60;99.90
39983;DHT22;25670;44.782;10.356;2023-08-20T00:39:57;24.70;99.90
39983;DHT22;25670;44.782;10.356;2023-08-20T00:42:24;24.60;99.90
39983;DHT22;25670;44.782;10.356;2023-08-20T00:44:54;24.80;99.90
39983;DHT22;25670;44.782;10.356;2023-08-20T00:47:21;24.40;99.90
39983;DHT22;25670;44.782;10.356;2023-08-20T00:49:51;24.50;99.90
39983;DHT22;25670;44.782;10.356;2023-08-20T00:52:17;24.30;99.90
39983;DHT22;25670;44.782;10.356;2023-08-20T00:54:45;24.70;99.90
39983;DHT22;25670;44.782;10.356;2023-08-20T00:57:18;24.70;99.90
39983;DHT22;25670;44.782;10.356;2023-08-20T00:59:47;24.50;99.90
39983;DHT22;25670;44.782;10.356;2023-08-20T01:02:16;24.20;99.90
39983;DHT22;25670;44.782;10.356;2023-08-20T01:04:43;24.60;99.90
39983;DHT22;25670;44.782;10.356;2023-08-20T01:07:30;24.60;99.90
39983;DHT22;25670;44.782;10.356;2023-08-20T01:10:37;24.20;99.90
39983;DHT22;25670;44.782;10.356;2023-08-20T01:13:06;24.20;99.90
39983;DHT22;25670;44.782;10.356;2023-08-20T01:15:33;24.00;99.90
39983;DHT22;25670;44.782;10.356;2023-08-20T01:17:59;24.10;99.90
39983;DHT22;25670;44.782;10.356;2023-08-20T01:20:30;23.90;99.90
39983;DHT22;25670;44.782;10.356;2023-08-20T01:26:06;24.10;99.90
39983;DHT22;25670;44.782;10.356;2023-08-20T01:28:36;24.20;99.90
39983;DHT22;25670;44.782;10.356;2023-08-20T01:31:03;23.90;99.90
39983;DHT22;25670;44.782;10.356;2023-08-20T01:33:35;23.90;99.90
39983;DHT22;25670;44.782;10.356;2023-08-20T01:36:02;24.20;99.90
39983;DHT22;25670;44.782;10.356;2023-08-20T01:38:28;23.70;99.90
39983;DHT22;25670;44.782;10.356;2023-08-20T01:40:55;24.00;99.90
39983;DHT22;25670;44.782;10.356;2023-08-20T01:43:22;24.30;99.90
39983;DHT22;25670;44.782;10.356;2023-08-20T01:45:48;24.20;99.90
39983;DHT22;25670;44.782;10.356;2023-08-20T01:50:41;23.90;99.90
39983;DHT22;25670;44.782;10.356;2023-08-20T01:53:08;23.90;99.90
39983;DHT22;25670;44.782;10.356;2023-08-20T01:55:35;24.00;99.90
39983;DHT22;25670;44.782;10.356;2023-08-20T01:58:02;24.00;99.90
39983;DHT22;25670;44.782;10.356;2023-08-20T02:00:28;24.00;99.90
39983;DHT22;25670;44.782;10.356;2023-08-20T02:02:57;24.20;99.90
39983;DHT22;25670;44.782;10.356;2023-08-20T02:05:24;24.10;99.90
39983;DHT22;25670;44.782;10.356;2023-08-20T02:07:50;23.90;99.90
39983;DHT22;25670;44.782;10.356;2023-08-20T02:10:17;23.80;99.90
39983;DHT22;25670;44.782;10.356;2023-08-20T02:15:10;23.60;99.90
39983;DHT22;25670;44.782;10.356;2023-08-20T02:17:37;23.90;99.90
39983;DHT22;25670;44.782;10.356;2023-08-20T02:20:03;23.80;99.90
39983;DHT22;25670;44.782;10.356;2023-08-20T02:24:57;23.70;99.90
39983;DHT22;25670;44.782;10.356;2023-08-20T02:27:23;23.70;99.90
39983;DHT22;25670;44.782;10.356;2023-08-20T02:29:49;23.50;99.90
39983;DHT22;25670;44.782;10.356;2023-08-20T02:32:15;23.50;99.90
39983;DHT22;25670;44.782;10.356;2023-08-20T02:37:08;23.30;99.90
39983;DHT22;25670;44.782;10.356;2023-08-20T02:42:01;23.30;99.90
39983;DHT22;25670;44.782;10.356;2023-08-20T02:44:27;23.20;99.90
39983;DHT22;25670;44.782;10.356;2023-08-20T02:49:20;23.20;99.90
39983;DHT22;25670;44.782;10.356;2023-08-20T02:51:46;23.00;99.90
39983;DHT22;25670;44.782;10.356;2023-08-20T02:54:13;26.50;99.90
39983;DHT22;25670;44.782;10.356;2023-08-20T02:56:39;22.90;99.90
39983;DHT22;25670;44.782;10.356;2023-08-20T02:59:05;23.00;99.90
39983;DHT22;25670;44.782;10.356;2023-08-20T03:01:32;22.80;99.90
39983;DHT22;25670;44.782;10.356;2023-08-20T03:03:58;22.90;99.90
39983;DHT22;25670;44.782;10.356;2023-08-20T03:08:51;22.80;99.90
39983;DHT22;25670;44.782;10.356;2023-08-20T03:13:44;22.60;99.90
39983;DHT22;25670;44.782;10.356;2023-08-20T03:18:37;22.30;99.90
39983;DHT22;25670;44.782;10.356;2023-08-20T03:21:03;22.40;99.90
39983;DHT22;25670;44.782;10.356;2023-08-20T03:23:29;22.40;99.90
39983;DHT22;25670;44.782;10.356;2023-08-20T03:25:59;22.30;99.90
39983;DHT22;25670;44.782;10.356;2023-08-20T03:30:53;22.30;99.90
39983;DHT22;25670;44.782;10.356;2023-08-20T03:33:23;22.20;99.90
39983;DHT22;25670;44.782;10.356;2023-08-20T03:38:18;22.20;99.90
39983;DHT22;25670;44.782;10.356;2023-08-20T03:40:44;22.30;99.90
39983;DHT22;25670;44.782;10.356;2023-08-20T03:45:37;22.10;99.90
39983;DHT22;25670;44.782;10.356;2023-08-20T03:48:04;22.00;99.90
39983;DHT22;25670;44.782;10.356;2023-08-20T03:52:57;21.80;99.90
39983;DHT22;25670;44.782;10.356;2023-08-20T03:55:23;22.00;99.90
39983;DHT22;25670;44.782;10.356;2023-08-20T04:02:45;21.90;99.90
39983;DHT22;25670;44.782;10.356;2023-08-20T04:07:38;21.80;99.90
39983;DHT22;25670;44.782;10.356;2023-08-20T04:10:04;21.70;99.90
39983;DHT22;25670;44.782;10.356;2023-08-20T04:12:31;21.60;99.90
39983;DHT22;25670;44.782;10.356;2023-08-20T04:14:57;21.80;99.90
39983;DHT22;25670;44.782;10.356;2023-08-20T04:17:23;21.60;99.90
39983;DHT22;25670;44.782;10.356;2023-08-20T04:19:51;21.80;99.90
39983;DHT22;25670;44.782;10.356;2023-08-20T04:27:10;21.60;99.90
39983;DHT22;25670;44.782;10.356;2023-08-20T04:29:40;21.80;99.90
39983;DHT22;25670;44.782;10.356;2023-08-20T04:36:59;21.80;99.90
39983;DHT22;25670;44.782;10.356;2023-08-20T04:39:25;21.90;99.90
39983;DHT22;25670;44.782;10.356;2023-08-20T04:41:53;22.00;99.90
39983;DHT22;25670;44.782;10.356;2023-08-20T04:46:53;21.90;99.90
39983;DHT22;25670;44.782;10.356;2023-08-20T04:49:19;22.10;99.90
39983;DHT22;25670;44.782;10.356;2023-08-20T04:54:11;22.20;99.90
39983;DHT22;25670;44.782;10.356;2023-08-20T04:56:38;22.20;99.90
39983;DHT22;25670;44.782;10.356;2023-08-20T05:04:49;22.30;99.90
39983;DHT22;25670;44.782;10.356;2023-08-20T05:07:15;22.30;99.90
39983;DHT22;25670;44.782;10.356;2023-08-20T05:09:41;22.50;99.90
39983;DHT22;25670;44.782;10.356;2023-08-20T05:12:08;22.70;99.90
39983;DHT22;25670;44.782;10.356;2023-08-20T05:14:34;22.60;99.90
39983;DHT22;25670;44.782;10.356;2023-08-20T05:19:28;22.80;99.90
39983;DHT22;25670;44.782;10.356;2023-08-20T05:24:25;22.80;99.90
39983;DHT22;25670;44.782;10.356;2023-08-20T05:27:05;22.80;99.90
39983;DHT22;25670;44.782;10.356;2023-08-20T05:29:33;22.90;99.90
39983;DHT22;25670;44.782;10.356;2023-08-20T05:31:59;23.30;99.90
39983;DHT22;25670;44.782;10.356;2023-08-20T05:34:25;23.10;99.90
39983;DHT22;25670;44.782;10.356;2023-08-20T05:36:52;23.80;99.90
39983;DHT22;25670;44.782;10.356;2023-08-20T05:39:18;23.00;99.90
39983;DHT22;25670;44.782;10.356;2023-08-20T05:46:38;23.60;99.90
39983;DHT22;25670;44.782;10.356;2023-08-20T05:49:06;23.80;99.90
39983;DHT22;25670;44.782;10.356;2023-08-20T05:51:35;23.90;99.90
39983;DHT22;25670;44.782;10.356;2023-08-20T05:54:01;24.00;99.90
39983;DHT22;25670;44.782;10.356;2023-08-20T06:01:20;24.50;99.90
39983;DHT22;25670;44.782;10.356;2023-08-20T06:06:13;24.40;99.90
39983;DHT22;25670;44.782;10.356;2023-08-20T06:08:40;23.20;99.90
39983;DHT22;25670;44.782;10.356;2023-08-20T06:11:06;24.70;99.90
39983;DHT22;25670;44.782;10.356;2023-08-20T06:13:32;24.80;99.90
39983;DHT22;25670;44.782;10.356;2023-08-20T06:15:58;24.60;99.90
39983;DHT22;25670;44.782;10.356;2023-08-20T06:18:24;24.60;99.90
39983;DHT22;25670;44.782;10.356;2023-08-20T06:20:50;25.40;99.90
39983;DHT22;25670;44.782;10.356;2023-08-20T06:23:17;25.20;99.90
39983;DHT22;25670;44.782;10.356;2023-08-20T06:25:43;25.30;99.90
39983;DHT22;25670;44.782;10.356;2023-08-20T06:28:09;25.30;99.90
39983;DHT22;25670;44.782;10.356;2023-08-20T06:30:36;25.40;99.90
39983;DHT22;25670;44.782;10.356;2023-08-20T06:33:02;25.80;99.90
39983;DHT22;25670;44.782;10.356;2023-08-20T06:35:28;25.70;99.90
39983;DHT22;25670;44.782;10.356;2023-08-20T06:37:54;26.00;99.90
39983;DHT22;25670;44.782;10.356;2023-08-20T06:40:21;25.90;99.90
39983;DHT22;25670;44.782;10.356;2023-08-20T06:42:47;26.00;99.90
39983;DHT22;25670;44.782;10.356;2023-08-20T06:45:13;26.10;99.90
39983;DHT22;25670;44.782;10.356;2023-08-20T06:47:39;26.10;99.90
39983;DHT22;25670;44.782;10.356;2023-08-20T06:50:06;25.70;99.90
39983;DHT22;25670;44.782;10.356;2023-08-20T06:52:32;26.30;99.90
39983;DHT22;25670;44.782;10.356;2023-08-20T06:54:58;26.40;99.90
39983;DHT22;25670;44.782;10.356;2023-08-20T06:57:24;26.50;99.90
39983;DHT22;25670;44.782;10.356;2023-08-20T06:59:51;26.60;99.90
39983;DHT22;25670;44.782;10.356;2023-08-20T07:02:17;26.70;99.90
39983;DHT22;25670;44.782;10.356;2023-08-20T07:04:43;26.70;99.90
39983;DHT22;25670;44.782;10.356;2023-08-20T07:07:10;26.80;99.90
39983;DHT22;25670;44.782;10.356;2023-08-20T07:09:36;26.90;99.90
39983;DHT22;25670;44.782;10.356;2023-08-20T07:12:04;27.50;99.90
39983;DHT22;25670;44.782;10.356;2023-08-20T07:14:30;27.10;99.90
39983;DHT22;25670;44.782;10.356;2023-08-20T07:16:57;27.20;99.90
39983;DHT22;25670;44.782;10.356;2023-08-20T07:19:23;27.30;99.90
39983;DHT22;25670;44.782;10.356;2023-08-20T07:21:50;27.40;99.90
39983;DHT22;25670;44.782;10.356;2023-08-20T07:24:17;27.50;99.90
39983;DHT22;25670;44.782;10.356;2023-08-20T07:26:44;27.70;99.90
39983;DHT22;25670;44.782;10.356;2023-08-20T07:29:10;27.70;99.90
39983;DHT22;25670;44.782;10.356;2023-08-20T07:31:36;27.80;99.90
39983;DHT22;25670;44.782;10.356;2023-08-20T07:34:03;27.90;99.90
39983;DHT22;25670;44.782;10.356;2023-08-20T07:36:30;27.90;99.90
39983;DHT22;25670;44.782;10.356;2023-08-20T07:38:56;28.10;99.90
39983;DHT22;25670;44.782;10.356;2023-08-20T07:41:23;28.10;99.90
39983;DHT22;25670;44.782;10.356;2023-08-20T07:43:49;28.30;99.90
39983;DHT22;25670;44.782;10.356;2023-08-20T07:46:15;28.30;99.90
39983;DHT22;25670;44.782;10.356;2023-08-20T07:48:42;28.40;99.90
39983;DHT22;25670;44.782;10.356;2023-08-20T07:51:09;28.50;99.90
39983;DHT22;25670;44.782;10.356;2023-08-20T07:53:35;28.70;99.90
39983;DHT22;25670;44.782;10.356;2023-08-20T07:56:02;28.70;99.90
39983;DHT22;25670;44.782;10.356;2023-08-20T07:58:28;28.70;99.90
39983;DHT22;25670;44.782;10.356;2023-08-20T08:00:55;28.70;99.90
39983;DHT22;25670;44.782;10.356;2023-08-20T08:03:22;28.90;99.90
39983;DHT22;25670;44.782;10.356;2023-08-20T08:05:48;29.00;99.90
39983;DHT22;25670;44.782;10.356;2023-08-20T08:08:20;29.10;99.90
39983;DHT22;25670;44.782;10.356;2023-08-20T08:10:47;29.10;99.90
39983;DHT22;25670;44.782;10.356;2023-08-20T08:13:16;29.20;99.90
39983;DHT22;25670;44.782;10.356;2023-08-20T08:15:42;29.20;99.90
39983;DHT22;25670;44.782;10.356;2023-08-20T08:18:08;29.70;99.90
39983;DHT22;25670;44.782;10.356;2023-08-20T08:20:38;29.50;99.90
39983;DHT22;25670;44.782;10.356;2023-08-20T08:23:04;29.60;99.90
39983;DHT22;25670;44.782;10.356;2023-08-20T08:25:31;29.70;99.90
39983;DHT22;25670;44.782;10.356;2023-08-20T08:27:57;29.70;99.90
39983;DHT22;25670;44.782;10.356;2023-08-20T08:30:23;29.70;99.90
39983;DHT22;25670;44.782;10.356;2023-08-20T08:32:50;29.70;99.90
39983;DHT22;25670;44.782;10.356;2023-08-20T08:35:16;29.80;99.90
39983;DHT22;25670;44.782;10.356;2023-08-20T08:37:43;30.00;99.90
39983;DHT22;25670;44.782;10.356;2023-08-20T08:40:09;30.10;99.90
39983;DHT22;25670;44.782;10.356;2023-08-20T08:42:35;30.10;99.90
39983;DHT22;25670;44.782;10.356;2023-08-20T08:45:03;30.20;99.90
39983;DHT22;25670;44.782;10.356;2023-08-20T08:47:30;30.10;99.90
39983;DHT22;25670;44.782;10.356;2023-08-20T08:49:56;30.20;99.90
39983;DHT22;25670;44.782;10.356;2023-08-20T08:52:23;30.40;99.90
39983;DHT22;25670;44.782;10.356;2023-08-20T08:54:49;30.40;99.90
39983;DHT22;25670;44.782;10.356;2023-08-20T08:57:16;30.30;99.90
39983;DHT22;25670;44.782;10.356;2023-08-20T08:59:43;30.40;99.90
39983;DHT22;25670;44.782;10.356;2023-08-20T09:02:10;30.60;99.90
39983;DHT22;25670;44.782;10.356;2023-08-20T09:04:40;30.60;99.90
39983;DHT22;25670;44.782;10.356;2023-08-20T09:07:12;30.60;99.90
39983;DHT22;25670;44.782;10.356;2023-08-20T09:09:46;30.70;99.90
39983;DHT22;25670;44.782;10.356;2023-08-20T09:12:13;30.70;99.90
39983;DHT22;25670;44.782;10.356;2023-08-20T09:14:45;30.60;99.90
39983;DHT22;25670;44.782;10.356;2023-08-20T09:17:12;30.40;99.90
39983;DHT22;25670;44.782;10.356;2023-08-20T09:19:39;30.30;99.90
39983;DHT22;25670;44.782;10.356;2023-08-20T09:22:05;30.50;99.90
39983;DHT22;25670;44.782;10.356;2023-08-20T09:24:52;31.20;99.90
39983;DHT22;25670;44.782;10.356;2023-08-20T09:27:18;31.00;99.90
39983;DHT22;25670;44.782;10.356;2023-08-20T09:29:47;31.10;99.90
39983;DHT22;25670;44.782;10.356;2023-08-20T09:32:18;31.20;99.90
39983;DHT22;25670;44.782;10.356;2023-08-20T09:34:47;31.30;99.90
39983;DHT22;25670;44.782;10.356;2023-08-20T09:37:14;31.40;99.90
39983;DHT22;25670;44.782;10.356;2023-08-20T09:39:41;31.50;99.90
39983;DHT22;25670;44.782;10.356;2023-08-20T09:42:08;31.10;99.90
39983;DHT22;25670;44.782;10.356;2023-08-20T09:44:37;31.70;99.90
39983;DHT22;25670;44.782;10.356;2023-08-20T09:47:10;31.80;99.90
39983;DHT22;25670;44.782;10.356;2023-08-20T09:49:41;31.80;99.90
39983;DHT22;25670;44.782;10.356;2023-08-20T09:52:09;31.70;99.90
39983;DHT22;25670;44.782;10.356;2023-08-20T09:55:03;31.70;99.90
39983;DHT22;25670;44.782;10.356;2023-08-20T09:57:40;31.90;99.90
39983;DHT22;25670;44.782;10.356;2023-08-20T10:00:08;32.00;99.90
39983;DHT22;25670;44.782;10.356;2023-08-20T10:02:42;32.20;99.90
39983;DHT22;25670;44.782;10.356;2023-08-20T10:05:10;32.40;99.90
39983;DHT22;25670;44.782;10.356;2023-08-20T10:07:37;32.30;99.90
39983;DHT22;25670;44.782;10.356;2023-08-20T10:10:07;32.20;99.90
39983;DHT22;25670;44.782;10.356;2023-08-20T10:12:34;32.30;99.90
39983;DHT22;25670;44.782;10.356;2023-08-20T10:15:01;31.80;99.90
39983;DHT22;25670;44.782;10.356;2023-08-20T10:17:34;32.50;99.90
39983;DHT22;25670;44.782;10.356;2023-08-20T10:20:02;32.70;99.90
39983;DHT22;25670;44.782;10.356;2023-08-20T10:22:37;32.90;99.90
39983;DHT22;25670;44.782;10.356;2023-08-20T10:25:08;33.10;99.90
39983;DHT22;25670;44.782;10.356;2023-08-20T10:27:38;33.20;99.90
39983;DHT22;25670;44.782;10.356;2023-08-20T10:30:16;33.20;99.90
39983;DHT22;25670;44.782;10.356;2023-08-20T10:35:10;33.60;99.90
39983;DHT22;25670;44.782;10.356;2023-08-20T10:37:36;33.50;99.90
39983;DHT22;25670;44.782;10.356;2023-08-20T10:40:03;33.50;99.90
39983;DHT22;25670;44.782;10.356;2023-08-20T10:42:30;33.50;99.90
39983;DHT22;25670;44.782;10.356;2023-08-20T10:44:57;33.50;99.90
39983;DHT22;25670;44.782;10.356;2023-08-20T10:47:25;33.40;99.90
39983;DHT22;25670;44.782;10.356;2023-08-20T10:49:53;33.50;99.90
39983;DHT22;25670;44.782;10.356;2023-08-20T10:52:22;33.60;99.90
39983;DHT22;25670;44.782;10.356;2023-08-20T10:54:52;33.60;99.90
39983;DHT22;25670;44.782;10.356;2023-08-20T10:57:19;33.70;99.90
39983;DHT22;25670;44.782;10.356;2023-08-20T10:59:57;33.80;99.90
39983;DHT22;25670;44.782;10.356;2023-08-20T11:02:24;33.70;99.90
39983;DHT22;25670;44.782;10.356;2023-08-20T11:04:52;33.60;99.90
39983;DHT22;25670;44.782;10.356;2023-08-20T11:07:20;33.70;99.90
39983;DHT22;25670;44.782;10.356;2023-08-20T11:09:46;33.60;99.90
39983;DHT22;25670;44.782;10.356;2023-08-20T11:12:15;33.80;99.90
39983;DHT22;25670;44.782;10.356;2023-08-20T11:14:42;34.10;99.90
39983;DHT22;25670;44.782;10.356;2023-08-20T11:17:08;34.40;99.90
39983;DHT22;25670;44.782;10.356;2023-08-20T11:19:35;34.70;99.90
39983;DHT22;25670;44.782;10.356;2023-08-20T11:22:01;34.70;99.90
39983;DHT22;25670;44.782;10.356;2023-08-20T11:24:31;34.90;99.90
39983;DHT22;25670;44.782;10.356;2023-08-20T11:29:26;34.60;99.90
39983;DHT22;25670;44.782;10.356;2023-08-20T11:34:19;34.70;99.90
39983;DHT22;25670;44.782;10.356;2023-08-20T11:36:45;34.90;99.90
39983;DHT22;25670;44.782;10.356;2023-08-20T11:39:11;35.20;99.90
39983;DHT22;25670;44.782;10.356;2023-08-20T11:41:40;35.40;99.90
39983;DHT22;25670;44.782;10.356;2023-08-20T11:44:08;35.40;99.90
39983;DHT22;25670;44.782;10.356;2023-08-20T11:46:42;35.30;99.90
39983;DHT22;25670;44.782;10.356;2023-08-20T11:49:11;35.50;99.90
39983;DHT22;25670;44.782;10.356;2023-08-20T11:51:48;35.50;99.90
39983;DHT22;25670;44.782;10.356;2023-08-20T11:54:18;35.70;99.90
39983;DHT22;25670;44.782;10.356;2023-08-20T11:56:47;36.00;99.90
39983;DHT22;25670;44.782;10.356;2023-08-20T11:59:14;36.10;99.30
39983;DHT22;25670;44.782;10.356;2023-08-20T12:01:41;36.20;99.00
39983;DHT22;25670;44.782;10.356;2023-08-20T12:04:08;35.90;98.00
39983;DHT22;25670;44.782;10.356;2023-08-20T12:06:36;36.50;98.10
39983;DHT22;25670;44.782;10.356;2023-08-20T12:09:23;36.50;96.80
39983;DHT22;25670;44.782;10.356;2023-08-20T12:11:54;36.70;96.50
39983;DHT22;25670;44.782;10.356;2023-08-20T12:14:24;36.70;96.50
39983;DHT22;25670;44.782;10.356;2023-08-20T12:16:52;36.60;95.60
39983;DHT22;25670;44.782;10.356;2023-08-20T12:19:19;36.70;95.40
39983;DHT22;25670;44.782;10.356;2023-08-20T12:21:45;36.60;94.50
39983;DHT22;25670;44.782;10.356;2023-08-20T12:24:20;35.90;95.10
39983;DHT22;25670;44.782;10.356;2023-08-20T12:29:13;36.50;93.10
39983;DHT22;25670;44.782;10.356;2023-08-20T12:31:40;36.70;93.30
39983;DHT22;25670;44.782;10.356;2023-08-20T12:34:07;37.00;94.70
39983;DHT22;25670;44.782;10.356;2023-08-20T12:39:00;36.90;94.60
39983;DHT22;25670;44.782;10.356;2023-08-20T12:41:27;37.10;94.70
39983;DHT22;25670;44.782;10.356;2023-08-20T12:43:53;37.20;95.00
39983;DHT22;25670;44.782;10.356;2023-08-20T12:46:19;37.40;94.40
39983;DHT22;25670;44.782;10.356;2023-08-20T12:48:46;37.30;94.70
39983;DHT22;25670;44.782;10.356;2023-08-20T12:51:12;37.50;94.60
39983;DHT22;25670;44.782;10.356;2023-08-20T12:53:39;37.70;93.70
39983;DHT22;25670;44.782;10.356;2023-08-20T12:56:07;38.10;93.60
39983;DHT22;25670;44.782;10.356;2023-08-20T12:58:33;38.90;92.40
39983;DHT22;25670;44.782;10.356;2023-08-20T13:03:27;39.50;90.70
39983;DHT22;25670;44.782;10.356;2023-08-20T13:05:54;40.40;90.50
39983;DHT22;25670;44.782;10.356;2023-08-20T13:08:23;41.80;87.10
39983;DHT22;25670;44.782;10.356;2023-08-20T13:10:54;42.20;83.10
39983;DHT22;25670;44.782;10.356;2023-08-20T13:13:22;43.00;82.90
39983;DHT22;25670;44.782;10.356;2023-08-20T13:15:49;43.70;80.50
39983;DHT22;25670;44.782;10.356;2023-08-20T13:18:16;43.80;78.50
39983;DHT22;25670;44.782;10.356;2023-08-20T13:20:44;43.60;76.30
39983;DHT22;25670;44.782;10.356;2023-08-20T13:23:10;43.50;74.90
39983;DHT22;25670;44.782;10.356;2023-08-20T13:25:36;43.40;73.50
39983;DHT22;25670;44.782;10.356;2023-08-20T13:28:03;43.40;72.00
39983;DHT22;25670;44.782;10.356;2023-08-20T13:30:29;42.40;71.50
39983;DHT22;25670;44.782;10.356;2023-08-20T13:32:55;43.50;71.30
39983;DHT22;25670;44.782;10.356;2023-08-20T13:35:22;43.40;70.30
39983;DHT22;25670;44.782;10.356;2023-08-20T13:40:15;43.60;68.20
39983;DHT22;25670;44.782;10.356;2023-08-20T13:42:41;43.50;68.90
39983;DHT22;25670;44.782;10.356;2023-08-20T13:45:08;44.00;68.60
39983;DHT22;25670;44.782;10.356;2023-08-20T13:47:34;44.00;68.00
39983;DHT22;25670;44.782;10.356;2023-08-20T13:52:30;45.30;65.50
39983;DHT22;25670;44.782;10.356;2023-08-20T13:54:56;44.80;65.80
39983;DHT22;25670;44.782;10.356;2023-08-20T13:59:49;45.80;64.40
39983;DHT22;25670;44.782;10.356;2023-08-20T14:02:15;47.00;64.10
39983;DHT22;25670;44.782;10.356;2023-08-20T14:04:42;46.40;62.10
39983;DHT22;25670;44.782;10.356;2023-08-20T14:07:08;45.60;62.30
39983;DHT22;25670;44.782;10.356;2023-08-20T14:09:34;46.40;61.30
39983;DHT22;25670;44.782;10.356;2023-08-20T14:12:02;46.60;60.60
39983;DHT22;25670;44.782;10.356;2023-08-20T14:14:28;46.00;60.40
39983;DHT22;25670;44.782;10.356;2023-08-20T14:16:54;46.40;60.80
39983;DHT22;25670;44.782;10.356;2023-08-20T14:19:20;46.10;59.90
39983;DHT22;25670;44.782;10.356;2023-08-20T14:21:47;46.20;59.30
39983;DHT22;25670;44.782;10.356;2023-08-20T14:24:13;46.00;59.30
39983;DHT22;25670;44.782;10.356;2023-08-20T14:31:32;47.80;57.00
39983;DHT22;25670;44.782;10.356;2023-08-20T14:33:58;48.00;56.60
39983;DHT22;25670;44.782;10.356;2023-08-20T14:36:25;48.60;56.40
39983;DHT22;25670;44.782;10.356;2023-08-20T14:43:44;46.30;55.60
39983;DHT22;25670;44.782;10.356;2023-08-20T14:51:07;45.50;56.70
39983;DHT22;25670;44.782;10.356;2023-08-20T14:53:33;46.00;57.30
39983;DHT22;25670;44.782;10.356;2023-08-20T14:58:26;46.30;56.60
39983;DHT22;25670;44.782;10.356;2023-08-20T15:00:52;46.60;56.70
39983;DHT22;25670;44.782;10.356;2023-08-20T15:03:18;47.30;55.80
39983;DHT22;25670;44.782;10.356;2023-08-20T15:05:44;47.50;55.00
39983;DHT22;25670;44.782;10.356;2023-08-20T15:08:11;47.60;55.00
39983;DHT22;25670;44.782;10.356;2023-08-20T15:10:38;47.50;54.60
39983;DHT22;25670;44.782;10.356;2023-08-20T15:13:04;47.40;55.20
39983;DHT22;25670;44.782;10.356;2023-08-20T15:15:31;48.40;53.40
39983;DHT22;25670;44.782;10.356;2023-08-20T15:17:57;48.30;53.90
39983;DHT22;25670;44.782;10.356;2023-08-20T15:22:50;47.30;53.80
39983;DHT22;25670;44.782;10.356;2023-08-20T15:25:16;46.00;54.80
39983;DHT22;25670;44.782;10.356;2023-08-20T15:27:44;45.90;55.10
39983;DHT22;25670;44.782;10.356;2023-08-20T15:30:11;46.80;55.00
39983;DHT22;25670;44.782;10.356;2023-08-20T15:32:37;47.20;54.50
39983;DHT22;25670;44.782;10.356;2023-08-20T15:35:04;47.20;54.40
39983;DHT22;25670;44.782;10.356;2023-08-20T15:37:32;47.10;53.70
39983;DHT22;25670;44.782;10.356;2023-08-20T15:39:58;46.60;53.80
39983;DHT22;25670;44.782;10.356;2023-08-20T15:42:24;46.80;53.80
39983;DHT22;25670;44.782;10.356;2023-08-20T15:44:51;46.80;54.00
39983;DHT22;25670;44.782;10.356;2023-08-20T15:52:10;47.70;52.80
39983;DHT22;25670;44.782;10.356;2023-08-20T15:57:03;47.80;52.90
39983;DHT22;25670;44.782;10.356;2023-08-20T15:59:29;47.30;53.40
39983;DHT22;25670;44.782;10.356;2023-08-20T16:01:56;46.90;53.30
39983;DHT22;25670;44.782;10.356;2023-08-20T16:04:22;46.60;53.80
39983;DHT22;25670;44.782;10.356;2023-08-20T16:06:49;46.60;53.80
39983;DHT22;25670;44.782;10.356;2023-08-20T16:14:09;45.90;53.60
39983;DHT22;25670;44.782;10.356;2023-08-20T16:19:02;46.10;53.80
39983;DHT22;25670;44.782;10.356;2023-08-20T16:21:28;46.00;54.30
39983;DHT22;25670;44.782;10.356;2023-08-20T16:23:55;46.20;54.60
39983;DHT22;25670;44.782;10.356;2023-08-20T16:26:21;45.80;54.90
39983;DHT22;25670;44.782;10.356;2023-08-20T16:28:47;45.10;54.80
39983;DHT22;25670;44.782;10.356;2023-08-20T16:31:13;45.10;55.60
39983;DHT22;25670;44.782;10.356;2023-08-20T16:33:40;45.10;54.50
39983;DHT22;25670;44.782;10.356;2023-08-20T16:36:06;44.50;55.30
39983;DHT22;25670;44.782;10.356;2023-08-20T16:38:32;44.70;55.40
39983;DHT22;25670;44.782;10.356;2023-08-20T16:41:00;44.40;54.80
39983;DHT22;25670;44.782;10.356;2023-08-20T16:43:28;44.90;54.80
39983;DHT22;25670;44.782;10.356;2023-08-20T16:45:57;45.40;54.80
39983;DHT22;25670;44.782;10.356;2023-08-20T16:48:27;45.20;54.20
39983;DHT22;25670;44.782;10.356;2023-08-20T16:51:00;44.90;54.60
39983;DHT22;25670;44.782;10.356;2023-08-20T16:53:27;44.20;54.90
39983;DHT22;25670;44.782;10.356;2023-08-20T16:55:54;44.20;54.90
39983;DHT22;25670;44.782;10.356;2023-08-20T16:58:21;43.90;55.40
39983;DHT22;25670;44.782;10.356;2023-08-20T17:00:48;44.10;55.10
39983;DHT22;25670;44.782;10.356;2023-08-20T17:10:35;44.10;54.50
39983;DHT22;25670;44.782;10.356;2023-08-20T17:13:01;44.00;55.30
39983;DHT22;25670;44.782;10.356;2023-08-20T17:17:54;43.60;55.10
39983;DHT22;25670;44.782;10.356;2023-08-20T17:20:20;42.80;55.70
39983;DHT22;25670;44.782;10.356;2023-08-20T17:22:47;42.70;56.50
39983;DHT22;25670;44.782;10.356;2023-08-20T17:25:13;42.30;56.60
39983;DHT22;25670;44.782;10.356;2023-08-20T17:27:40;42.50;57.30
39983;DHT22;25670;44.782;10.356;2023-08-20T17:30:06;42.00;57.80
39983;DHT22;25670;44.782;10.356;2023-08-20T17:32:38;41.40;57.90
39983;DHT22;25670;44.782;10.356;2023-08-20T17:35:05;41.40;58.40
39983;DHT22;25670;44.782;10.356;2023-08-20T17:37:35;40.30;59.00
39983;DHT22;25670;44.782;10.356;2023-08-20T17:40:02;39.90;59.30
39983;DHT22;25670;44.782;10.356;2023-08-20T17:42:28;39.60;60.00
39983;DHT22;25670;44.782;10.356;2023-08-20T17:44:54;39.00;60.90
39983;DHT22;25670;44.782;10.356;2023-08-20T17:47:21;38.90;62.10